Estación Meteorológica Peña el Pijo (Robertgarden) [ 09/23/17 05:46:10 CEST ]

Fecha Hora Presion(HPa) Temp (°C) Humedad % Rocio (°C) Viento ( m/s) Direccion Lluvia 1Hora(mm) Lluvia 24H(mm) LLuvia Total(mm)
2017-Jul-05 01:09:30 1012.100 - - - - SSW     1427.60
2017-Jul-05 02:09:16 1012.100 - - - - SSW     1427.60
2017-Jul-05 03:01:30 1011.500 13.6 71 8.4         1427.60
2017-Jul-05 04:01:31 1010.800 12.6 74 8.1         1427.60
2017-Jul-05 05:01:30 1010.700 11.9 76 7.8         1427.60
2017-Jul-05 06:01:30 1010.900 11.5 79 8.0         1427.60
2017-Jul-05 07:01:43 1010.900 11.2 80 7.9         1427.60
2017-Jul-05 08:01:54 1011.000 12.6 81 9.4         1427.60
2017-Jul-05 09:01:46 1011.100 18.8 64 11.8         1427.60
2017-Jul-05 10:09:18 1010.800 - - - - W     1427.60
2017-Jul-05 11:01:48 1010.300 28.5 32 10.1         1427.60
2017-Jul-05 12:01:47 1010.000 32.0 27 10.5         1427.60
2017-Jul-05 13:01:38 1010.400 32.1 24 8.8 2.8 S     1427.60
2017-Jul-05 14:01:37 1010.400 31.9 25 9.2 1.3 SE     1427.60
2017-Jul-05 15:01:31 1010.000 33.2 25 10.3         1427.60
2017-Jul-05 16:01:48 1009.200 34.1 26 11.6         1427.60
2017-Jul-05 17:01:50 1008.900 36.3 24 12.3         1427.60
2017-Jul-05 18:01:37 1009.000 33.9 27 12.1 2.0 S     1427.60
2017-Jul-05 19:01:28 1008.800 31.4 32 12.6         1427.60
2017-Jul-05 20:01:45 1009.600 28.1 38 12.4         1427.60
2017-Jul-05 21:01:49 1012.100 19.9 60 11.9     2.59 2.59 1430.19
2017-Jul-05 22:01:50 1011.000 17.9 72 12.8       2.59 1430.19
2017-Jul-05 23:01:42 1011.900 18.1 76 13.8       2.59 1430.19

Temperatura Máxima:36°    Temperatura Mínima:
Presión Máxima:1012.100 Hpa    Presión Mínima:1008.800 Hpa


Volver